Temp: 17.4°C   Baro: 1015.3mb
  Wind: 12.1mph   Dir: W (280°)
  Rain: 9.6mm (0.0mm/hr)
  Solar: 793W/m2  Hum: 68%
 
Bath Spa Weather Historical Data
Daily Summary for May 16, 2019 Units:  English    Metric   Both
Next Day »
Daily Weekly Monthly Yearly Custom
  High: Low: Average:
Temperature: 66.2 °F 44.4 °F 55.6 °F
Dew Point: 48 °F 37 °F 41.7 °F
Humidity: 77% 43% 61%
Wind Speed: 13mph 0mph 3mph
Wind Gust: 15mph - -
Wind direction- - ESE
Pressure: 30.2 in 29.9 in -
Precipitation: 0 in    
Historical Graphs
 
 
Tabular Data for May 16, 2019
Time Temperature Dew Point Pressure Wind direction Wind Speed Wind Gust Humidity Rainfall Rate (Hourly) solar
00:04 53.2 °F 42.6 °F 30.2 in ENE 2.9 mph 3 mph 67% 0 in 0.00 W/m2
00:09 53.1 °F 42.4 °F 30.2 in Calm   2 mph 67% 0 in 0.00 W/m2
00:14 52.7 °F 42.4 °F 30.2 in East 4.9 mph 5 mph 68% 0 in 0.00 W/m2
00:19 52.5 °F 42.3 °F 30.2 in SE 4.9 mph 7 mph 68% 0 in 0.00 W/m2
00:24 52.9 °F 42.3 °F 30.2 in ESE 2.9 mph 5 mph 67% 0 in 0.00 W/m2
00:29 53.2 °F 42.3 °F 30.2 in Calm   5 mph 66% 0 in 0.00 W/m2
00:34 53.2 °F 42.3 °F 30.2 in ESE 2.9 mph 5 mph 66% 0 in 0.00 W/m2
00:39 53.2 °F 42.3 °F 30.2 in SE 4 mph 5 mph 66% 0 in 0.00 W/m2
00:44 53.1 °F 42.4 °F 30.2 in ESE 4 mph 5 mph 67% 0 in 0.00 W/m2
00:49 52.9 °F 42.3 °F 30.2 in ESE 0.9 mph 3 mph 67% 0 in 0.00 W/m2
00:54 52.7 °F 42.4 °F 30.2 in ESE 0.9 mph 3 mph 68% 0 in 0.00 W/m2
00:59 52.3 °F 42.4 °F 30.2 in ESE 0.9 mph 2 mph 69% 0 in 0.00 W/m2
01:04 52 °F 42.4 °F 30.2 in ESE 2 mph 2 mph 70% 0 in 0.00 W/m2
01:09 51.8 °F 42.6 °F 30.2 in Calm   3 mph 71% 0 in 0.00 W/m2
01:14 51.4 °F 42.4 °F 30.2 in ESE 4 mph 4 mph 71% 0 in 0.00 W/m2
01:19 51.3 °F 42.6 °F 30.2 in Calm   4 mph 72% 0 in 0.00 W/m2
01:24 51.1 °F 42.4 °F 30.2 in Calm   2 mph 72% 0 in 0.00 W/m2
01:29 50.9 °F 42.3 °F 30.2 in Calm   4 mph 72% 0 in 0.00 W/m2
01:34 50.7 °F 42.1 °F 30.2 in ESE 0.9 mph 2 mph 72% 0 in 0.00 W/m2
01:39 50.5 °F 42.3 °F 30.2 in ESE 0.9 mph 1 mph 73% 0 in 0.00 W/m2
01:44 50.4 °F 42.1 °F 30.2 in ESE 2.9 mph 3 mph 73% 0 in 0.00 W/m2
01:49 49.8 °F 41.5 °F 30.2 in Calm   3 mph 73% 0 in 0.00 W/m2
01:54 49.6 °F 41 °F 30.2 in ESE 0.9 mph 4 mph 72% 0 in 0.00 W/m2
01:59 49.5 °F 40.8 °F 30.2 in Calm   3 mph 72% 0 in 0.00 W/m2
02:04 49.5 °F 40.8 °F 30.2 in SE 2 mph 4 mph 72% 0 in 0.00 W/m2
02:09 49.1 °F 40.5 °F 30.2 in Calm   2 mph 72% 0 in 0.00 W/m2
02:14 49.1 °F 40.5 °F 30.2 in Calm   3 mph 72% 0 in 0.00 W/m2
02:19 48.9 °F 39.9 °F 30.2 in Calm   2 mph 71% 0 in 0.00 W/m2
02:24 48.7 °F 40.1 °F 30.2 in Calm     72% 0 in 0.00 W/m2
02:29 48.6 °F 39.9 °F 30.2 in Calm     72% 0 in 0.00 W/m2
02:34 48.4 °F 39.7 °F 30.2 in ESE 2 mph 2 mph 72% 0 in 0.00 W/m2
02:39 48.2 °F 39.6 °F 30.2 in ESE 3 mph 3 mph 72% 0 in 0.00 W/m2
02:44 48 °F 39.4 °F 30.2 in Calm   2 mph 72% 0 in 0.00 W/m2
02:49 48 °F 39.4 °F 30.2 in Calm   2 mph 72% 0 in 0.00 W/m2
02:54 48 °F 39.4 °F 30.2 in Calm   2 mph 72% 0 in 0.00 W/m2
02:59 48 °F 39.4 °F 30.2 in Calm   6 mph 72% 0 in 0.00 W/m2
03:04 48.2 °F 39.6 °F 30.2 in ENE 2 mph 3 mph 72% 0 in 0.00 W/m2
03:09 48.2 °F 39.2 °F 30.2 in Calm   2 mph 71% 0 in 0.00 W/m2
03:14 48.4 °F 39.4 °F 30.2 in ENE 2 mph 2 mph 71% 0 in 0.00 W/m2
03:19 48.4 °F 39.4 °F 30.2 in ENE 0.9 mph 3 mph 71% 0 in 0.00 W/m2
03:24 48.4 °F 39.4 °F 30.2 in NE 0.9 mph 5 mph 71% 0 in 0.00 W/m2
03:29 48.4 °F 39.4 °F 30.2 in ENE 2 mph 2 mph 71% 0 in 0.00 W/m2
03:34 48.2 °F 39.2 °F 30.2 in Calm   1 mph 71% 0 in 0.00 W/m2
03:39 48.2 °F 39.2 °F 30.2 in Calm   2 mph 71% 0 in 0.00 W/m2
03:44 47.8 °F 38.8 °F 30.2 in ENE 2 mph 2 mph 71% 0 in 0.00 W/m2
03:49 47.7 °F 39 °F 30.2 in Calm     72% 0 in 0.00 W/m2
03:54 47.5 °F 38.8 °F 30.2 in Calm     72% 0 in 0.00 W/m2
03:59 47.1 °F 38.5 °F 30.2 in Calm     72% 0 in 0.00 W/m2
04:04 46.9 °F 38.3 °F 30.2 in Calm   3 mph 72% 0 in 0.00 W/m2
04:09 46.6 °F 38.5 °F 30.2 in ENE 2 mph 3 mph 73% 0 in 0.00 W/m2
04:14 46.4 °F 38.3 °F 30.2 in ENE 2.9 mph 3 mph 73% 0 in 0.00 W/m2
04:19 46.2 °F 38.1 °F 30.2 in Calm   1 mph 73% 0 in 0.00 W/m2
04:24 46.2 °F 38.1 °F 30.2 in Calm   3 mph 73% 0 in 0.00 W/m2
04:29 46 °F 38.3 °F 30.1 in Calm   3 mph 74% 0 in 0.00 W/m2
04:34 45.5 °F 37.8 °F 30.1 in ESE 2 mph 5 mph 74% 0 in 0.00 W/m2
04:39 45.5 °F 37.8 °F 30.1 in ESE 0.9 mph 2 mph 74% 0 in 0.00 W/m2
04:44 45.3 °F 37.6 °F 30.1 in ESE 0.9 mph 3 mph 74% 0 in 0.00 W/m2
04:49 45.3 °F 37.6 °F 30.1 in ESE 2 mph 3 mph 74% 0 in 0.00 W/m2
04:54 45 °F 37.2 °F 30.1 in ESE 0.9 mph 3 mph 74% 0 in 0.00 W/m2
04:59 44.8 °F 37.4 °F 30.1 in ESE 0.9 mph 1 mph 75% 0 in 0.00 W/m2
05:04 44.6 °F 37.2 °F 30.1 in ESE 0.9 mph 3 mph 75% 0 in 0.00 W/m2
05:09 44.6 °F 37.2 °F 30.1 in ESE 0.9 mph 3 mph 75% 0 in 0.00 W/m2
05:14 44.4 °F 37 °F 30.1 in Calm     75% 0 in 5.00 W/m2
05:19 44.4 °F 37 °F 30.1 in ESE 2 mph 3 mph 75% 0 in 7.00 W/m2
05:24 44.4 °F 37 °F 30.1 in Calm   1 mph 75% 0 in 11.00 W/m2
05:29 44.6 °F 37.2 °F 30.1 in ESE 2 mph 4 mph 75% 0 in 18.00 W/m2
05:34 44.8 °F 37.4 °F 30.1 in ESE 2.9 mph 3 mph 75% 0 in 23.00 W/m2
05:39 44.6 °F 37.2 °F 30.1 in SSE 4 mph 5 mph 75% 0 in 30.00 W/m2
05:44 44.4 °F 37.4 °F 30.1 in SSE 4.9 mph 6 mph 76% 0 in 33.00 W/m2
05:49 44.4 °F 37.4 °F 30.1 in SSE 0.9 mph 5 mph 76% 0 in 39.00 W/m2
05:54 44.4 °F 37.4 °F 30.1 in SSE 2 mph 6 mph 76% 0 in 44.00 W/m2
05:59 44.4 °F 37.4 °F 30.1 in SSE 4 mph 6 mph 76% 0 in 53.00 W/m2
06:04 44.4 °F 37.4 °F 30.1 in SSE 2 mph 5 mph 76% 0 in 60.00 W/m2
06:09 44.4 °F 37.4 °F 30.1 in SSE 0.9 mph 3 mph 76% 0 in 63.00 W/m2
06:14 44.6 °F 37.8 °F 30.1 in SSE 4 mph 5 mph 77% 0 in 69.00 W/m2
06:19 44.6 °F 37.8 °F 30.1 in SSE 4 mph 4 mph 77% 0 in 74.00 W/m2
06:24 44.6 °F 37.8 °F 30.1 in SSE 2 mph 6 mph 77% 0 in 77.00 W/m2
06:29 45 °F 38.1 °F 30.1 in Calm   5 mph 77% 0 in 81.00 W/m2
06:34 45.1 °F 38.3 °F 30.1 in Calm   3 mph 77% 0 in 83.00 W/m2
06:39 45.3 °F 38.5 °F 30.1 in SSE 2.9 mph 4 mph 77% 0 in 84.00 W/m2
06:44 45.3 °F 38.5 °F 30.1 in Calm   4 mph 77% 0 in 88.00 W/m2
06:49 45.5 °F 38.7 °F 30.1 in SSE 2.9 mph 5 mph 77% 0 in 97.00 W/m2
06:54 45.7 °F 38.8 °F 30.1 in SSE 2.9 mph 4 mph 77% 0 in 111.00 W/m2
06:59 45.9 °F 39 °F 30.1 in SSE 0.9 mph 3 mph 77% 0 in 120.00 W/m2
07:04 46 °F 39.2 °F 30.1 in SSE 2.9 mph 7 mph 77% 0 in 125.00 W/m2
07:09 45.9 °F 39 °F 30.1 in SSE 4 mph 5 mph 77% 0 in 139.00 W/m2
07:14 46 °F 39.2 °F 30.1 in SE 2.9 mph 4 mph 77% 0 in 142.00 W/m2
07:19 46.2 °F 39.4 °F 30.1 in SSE 0.9 mph 4 mph 77% 0 in 163.00 W/m2
07:24 46.6 °F 39.7 °F 30.1 in SE 0.9 mph 4 mph 77% 0 in 160.00 W/m2
07:29 46.8 °F 39.9 °F 30.1 in SE 2 mph 5 mph 77% 0 in 169.00 W/m2
07:34 47.1 °F 40.3 °F 30.1 in Calm   3 mph 77% 0 in 223.00 W/m2
07:39 47.5 °F 40.6 °F 30.1 in SSE 6 mph 6 mph 77% 0 in 207.00 W/m2
07:44 47.7 °F 40.5 °F 30.1 in Calm   3 mph 76% 0 in 202.00 W/m2
07:49 48 °F 40.8 °F 30.1 in ESE 2 mph 5 mph 76% 0 in 195.00 W/m2
07:54 48.2 °F 41 °F 30.1 in ENE 2 mph 5 mph 76% 0 in 211.00 W/m2
07:59 48.6 °F 41.4 °F 30.1 in ENE 0.9 mph 1 mph 76% 0 in 255.00 W/m2
08:04 48.6 °F 41 °F 30.1 in ESE 0.9 mph 3 mph 75% 0 in 244.00 W/m2
08:09 48.9 °F 41.4 °F 30.1 in Calm   2 mph 75% 0 in 299.00 W/m2
08:14 49.3 °F 41.7 °F 30.1 in ESE 4 mph 8 mph 75% 0 in 313.00 W/m2
08:19 49.8 °F 41.9 °F 30.1 in SSE 4 mph 7 mph 74% 0 in 313.00 W/m2
08:24 50.4 °F 42.1 °F 30.1 in SE 4 mph 4 mph 73% 0 in 318.00 W/m2
08:29 50.7 °F 42.4 °F 30.1 in Calm   4 mph 73% 0 in 329.00 W/m2
08:34 50.7 °F 42.4 °F 30.1 in East 2.9 mph 5 mph 73% 0 in 359.00 W/m2
08:39 51.1 °F 42.4 °F 30.1 in SSE 2.9 mph 6 mph 72% 0 in 366.00 W/m2
08:44 50.9 °F 42.3 °F 30.1 in ESE 4.9 mph 7 mph 72% 0 in 378.00 W/m2
08:49 51.4 °F 43.2 °F 30.1 in Calm   2 mph 73% 0 in 401.00 W/m2
08:54 51.8 °F 43 °F 30.1 in SE 2.9 mph 8 mph 72% 0 in 390.00 W/m2
08:59 51.4 °F 42.8 °F 30.1 in SSE 2 mph 4 mph 72% 0 in 424.00 W/m2
09:04 52.3 °F 43.2 °F 30.1 in SE 4 mph 6 mph 71% 0 in 468.00 W/m2
09:09 52.9 °F 43.7 °F 30.1 in ESE 4.9 mph 7 mph 71% 0 in 494.00 W/m2
09:14 53.6 °F 44.1 °F 30.1 in ESE 2.9 mph 9 mph 70% 0 in 490.00 W/m2
09:19 54 °F 44.1 °F 30.1 in ENE 6.9 mph 9 mph 69% 0 in 476.00 W/m2
09:24 54.5 °F 44.6 °F 30.1 in NE 2 mph 5 mph 69% 0 in 455.00 W/m2
09:29 55.2 °F 44.8 °F 30.1 in ESE 4.9 mph 6 mph 68% 0 in 496.00 W/m2
09:34 55.2 °F 44.4 °F 30.1 in ESE 6 mph 8 mph 67% 0 in 524.00 W/m2
09:39 55.6 °F 44.8 °F 30.1 in SSE 0.9 mph 5 mph 67% 0 in 538.00 W/m2
09:44 56.3 °F 45.5 °F 30.1 in ENE 4.9 mph 5 mph 67% 0 in 561.00 W/m2
09:49 56.3 °F 44.6 °F 30.1 in ENE 8.9 mph 9 mph 65% 0 in 548.00 W/m2
09:54 56.5 °F 45.7 °F 30.1 in ESE 2 mph 4 mph 67% 0 in 533.00 W/m2
09:59 56.8 °F 45.7 °F 30.1 in ESE 4.9 mph 6 mph 66% 0 in 575.00 W/m2
10:04 57.6 °F 45.9 °F 30.1 in East 0.9 mph 7 mph 65% 0 in 592.00 W/m2
10:09 57.7 °F 45.7 °F 30.1 in Calm   5 mph 64% 0 in 605.00 W/m2
10:14 57.7 °F 46 °F 30.1 in NE 2.9 mph 9 mph 65% 0 in 628.00 W/m2
10:19 58.1 °F 45.1 °F 30.1 in SSE 2.9 mph 9 mph 62% 0 in 613.00 W/m2
10:24 57.9 °F 46.9 °F 30.1 in Calm   11 mph 67% 0 in 610.00 W/m2
10:29 58.8 °F 47.5 °F 30.1 in East 2.9 mph 7 mph 66% 0 in 469.00 W/m2
10:34 58.3 °F 46.9 °F 30.1 in ESE 4 mph 7 mph 66% 0 in 540.00 W/m2
10:39 59.4 °F 48 °F 30.1 in NE 0.9 mph 2 mph 66% 0 in 610.00 W/m2
10:44 59.7 °F 48 °F 30.1 in NE 2.9 mph 7 mph 65% 0 in 599.00 W/m2
10:49 60.3 °F 45.5 °F 30.1 in East 0.9 mph 11 mph 58% 0 in 605.00 W/m2
10:54 60.6 °F 45.3 °F 30.1 in SE 8.9 mph 9 mph 57% 0 in 619.00 W/m2
10:59 60.3 °F 45.5 °F 30.1 in ESE 6.9 mph 9 mph 58% 0 in 619.00 W/m2
11:04 60.6 °F 44.8 °F 30.1 in ESE 2 mph 10 mph 56% 0 in 650.00 W/m2
11:09 59.9 °F 43.7 °F 30.1 in SSE 4 mph 8 mph 55% 0 in 652.00 W/m2
11:14 61 °F 45.1 °F 30.1 in East 4.9 mph 5 mph 56% 0 in 656.00 W/m2
11:19 61.9 °F 45.1 °F 30.1 in East 2.9 mph 8 mph 54% 0 in 670.00 W/m2
11:24 62.4 °F 45.1 °F 30.1 in SE 13 mph 13 mph 53% 0 in 705.00 W/m2
11:29 62.1 °F 44.2 °F 30.1 in SSE 2.9 mph 7 mph 52% 0 in 708.00 W/m2
11:34 62.1 °F 44.8 °F 30.1 in ESE 13 mph 13 mph 53% 0 in 691.00 W/m2
11:39 61.5 °F 42.6 °F 30.1 in NE 4 mph 11 mph 50% 0 in 687.00 W/m2
11:44 62.6 °F 43.7 °F 30.1 in SE 8.1 mph 13 mph 50% 0 in 714.00 W/m2
11:49 62.6 °F 43.2 °F 30.1 in South 6.9 mph 8 mph 49% 0 in 707.00 W/m2
11:54 62.2 °F 42.8 °F 30.1 in SE 6.9 mph 12 mph 49% 0 in 710.00 W/m2
11:59 62.6 °F 42.6 °F 30.1 in East 4.9 mph 10 mph 48% 0 in 719.00 W/m2
12:04 63.5 °F 43 °F 30.1 in East 6.9 mph 8 mph 47% 0 in 773.00 W/m2
12:09 63.9 °F 43.2 °F 30.1 in South 6.9 mph 7 mph 47% 0 in 784.00 W/m2
12:14 62.6 °F 41.5 °F 30.1 in Calm   9 mph 46% 0 in 731.00 W/m2
12:19 63 °F 41.9 °F 30.1 in SE 10.1 mph 10 mph 46% 0 in 721.00 W/m2
12:24 63.3 °F 42.3 °F 30.1 in SE 0.9 mph 8 mph 46% 0 in 696.00 W/m2
12:29 62.1 °F 40.5 °F 30.1 in South 8.9 mph 11 mph 45% 0 in 657.00 W/m2
12:34 62.6 °F 41 °F 30.1 in East 2.9 mph 9 mph 45% 0 in 577.00 W/m2
12:39 62.6 °F 40.5 °F 30.1 in ESE 2 mph 11 mph 44% 0 in 587.00 W/m2
12:44 63.5 °F 41.2 °F 30.1 in ESE 0.9 mph 12 mph 44% 0 in 643.00 W/m2
12:49 62.4 °F 39.6 °F 30.1 in SSE 6 mph 10 mph 43% 0 in 643.00 W/m2
12:54 62.4 °F 41.4 °F 30.1 in East 2 mph 8 mph 46% 0 in 628.00 W/m2
12:59 63.9 °F 42.1 °F 30.1 in East 6.9 mph 8 mph 45% 0 in 617.00 W/m2
13:04 63.1 °F 42.1 °F 30.1 in SE 6.9 mph 7 mph 46% 0 in 647.00 W/m2
13:09 64.2 °F 41.9 °F 30.1 in SSE 6 mph 9 mph 44% 0 in 738.00 W/m2
13:14 62.6 °F 41 °F 30.1 in SE 6 mph 9 mph 45% 0 in 759.00 W/m2
13:19 63.3 °F 41.5 °F 30.1 in SSE 8.9 mph 10 mph 45% 0 in 721.00 W/m2
13:24 62.6 °F 41.5 °F 30 in East 11 mph 11 mph 46% 0 in 812.00 W/m2
13:29 63.3 °F 41 °F 30 in SE 6 mph 15 mph 44% 0 in 898.00 W/m2
13:34 63 °F 41.9 °F 30 in SSE 6 mph 12 mph 46% 0 in 923.00 W/m2
13:39 62.4 °F 41.4 °F 30 in South 4.9 mph 9 mph 46% 0 in 960.00 W/m2
13:44 62.4 °F 41.9 °F 30 in SSE 4 mph 12 mph 47% 0 in 285.00 W/m2
13:49 63.5 °F 41.7 °F 30 in SSE 8.9 mph 9 mph 45% 0 in 853.00 W/m2
13:54 62.1 °F 41 °F 30 in SSE 8.9 mph 13 mph 46% 0 in 877.00 W/m2
13:59 62.1 °F 41 °F 30 in ESE 4 mph 14 mph 46% 0 in 965.00 W/m2
14:04 64 °F 42.8 °F 30 in ENE 2 mph 10 mph 46% 0 in 969.00 W/m2
14:09 64.8 °F 43 °F 30 in ENE 2.9 mph 6 mph 45% 0 in 339.00 W/m2
14:14 65.8 °F 43.9 °F 30 in Calm   8 mph 45% 0 in 962.00 W/m2
14:19 66.2 °F 43.7 °F 30 in SE 13 mph 13 mph 44% 0 in 954.00 W/m2
14:24 65.5 °F 43.5 °F 30 in SSE 6 mph 8 mph 45% 0 in 846.00 W/m2
14:29 65.5 °F 44.2 °F 30 in ENE 4 mph 10 mph 46% 0 in 332.00 W/m2
14:34 65.7 °F 43.7 °F 30 in ESE 2 mph 9 mph 45% 0 in 925.00 W/m2
14:39 66.2 °F 44.2 °F 30 in ESE 4.9 mph 8 mph 45% 0 in 842.00 W/m2
14:44 65.3 °F 44.1 °F 30 in NE 4.9 mph 9 mph 46% 0 in 243.00 W/m2
14:49 64.2 °F 43.5 °F 30 in East 6 mph 7 mph 47% 0 in 315.00 W/m2
14:54 65.1 °F 43.9 °F 30 in Calm   10 mph 46% 0 in 826.00 W/m2
14:59 65.5 °F 44.2 °F 30 in NE 2 mph 9 mph 46% 0 in 232.00 W/m2
15:04 64.9 °F 44.2 °F 30 in SSE 2 mph 4 mph 47% 0 in 246.00 W/m2
15:09 64.4 °F 43.2 °F 30 in ESE 2.9 mph 7 mph 46% 0 in 271.00 W/m2
15:14 64.4 °F 43.2 °F 30 in SE 2 mph 6 mph 46% 0 in 318.00 W/m2
15:19 65.3 °F 44.1 °F 30 in ESE 4 mph 5 mph 46% 0 in 675.00 W/m2
15:24 64.9 °F 42.4 °F 30 in ESE 12 mph 12 mph 44% 0 in 390.00 W/m2
15:29 64.4 °F 43.2 °F 30 in East 4.9 mph 10 mph 46% 0 in 710.00 W/m2
15:34 63.9 °F 42.6 °F 30 in East 2.9 mph 13 mph 46% 0 in 691.00 W/m2
15:39 64.6 °F 42.8 °F 30 in ESE 6.9 mph 9 mph 45% 0 in 294.00 W/m2
15:44 65.1 °F 42.6 °F 30 in NE 4 mph 7 mph 44% 0 in 793.00 W/m2
15:49 65.7 °F 43.2 °F 30 in ESE 4 mph 11 mph 44% 0 in 243.00 W/m2
15:54 64.8 °F 43 °F 30 in Calm   7 mph 45% 0 in 225.00 W/m2
15:59 64.8 °F 43 °F 30 in ENE 2.9 mph 8 mph 45% 0 in 220.00 W/m2
16:04 64.6 °F 42.8 °F 30 in Calm   9 mph 45% 0 in 206.00 W/m2
16:09 64.2 °F 43 °F 30 in ESE 0.9 mph 4 mph 46% 0 in 213.00 W/m2
16:14 63.7 °F 42.4 °F 30 in SSE 6.9 mph 9 mph 46% 0 in 257.00 W/m2
16:19 63.5 °F 42.3 °F 30 in East 2.9 mph 11 mph 46% 0 in 304.00 W/m2
16:24 64 °F 42.3 °F 30 in SSE 4 mph 8 mph 45% 0 in 531.00 W/m2
16:29 63.9 °F 42.1 °F 30 in ESE 2.9 mph 8 mph 45% 0 in 622.00 W/m2
16:34 64.2 °F 42.4 °F 30 in ENE 2 mph 8 mph 45% 0 in 621.00 W/m2
16:39 64.6 °F 42.8 °F 30 in SE 11 mph 11 mph 45% 0 in 410.00 W/m2
16:44 64.9 °F 43.2 °F 30 in NE 2 mph 10 mph 45% 0 in 209.00 W/m2
16:49 64.8 °F 43 °F 30 in NNE 11 mph 11 mph 45% 0 in 649.00 W/m2
16:54 65.3 °F 44.1 °F 30 in ENE 2.9 mph 7 mph 46% 0 in 654.00 W/m2
16:59 66 °F 43.5 °F 30 in East 4.9 mph 14 mph 44% 0 in 624.00 W/m2
17:04 65.7 °F 43.2 °F 30 in NE 4 mph 11 mph 44% 0 in 206.00 W/m2
17:09 64.8 °F 43 °F 30 in ESE 2.9 mph 14 mph 45% 0 in 195.00 W/m2
17:14 63.5 °F 43.5 °F 30 in SE 4 mph 11 mph 48% 0 in 181.00 W/m2
17:19 63 °F 43 °F 30 in NE 4.9 mph 15 mph 48% 0 in 123.00 W/m2
17:24 62.8 °F 43.9 °F 30 in East 6 mph 12 mph 50% 0 in 120.00 W/m2
17:29 62.4 °F 44.1 °F 30 in ESE 6 mph 14 mph 51% 0 in 141.00 W/m2
17:34 62.1 °F 44.2 °F 30 in Calm   10 mph 52% 0 in 163.00 W/m2
17:39 62.1 °F 44.2 °F 30 in ESE 10.1 mph 11 mph 52% 0 in 167.00 W/m2
17:44 61.7 °F 43.3 °F 30 in East 2.9 mph 8 mph 51% 0 in 163.00 W/m2
17:49 61.7 °F 44.4 °F 30 in ESE 8.9 mph 14 mph 53% 0 in 151.00 W/m2
17:54 61.7 °F 44.4 °F 30 in East 2.9 mph 8 mph 53% 0 in 151.00 W/m2
17:59 61.5 °F 44.2 °F 30 in ESE 10.1 mph 14 mph 53% 0 in 171.00 W/m2
18:04 61.3 °F 44.1 °F 30 in ESE 2 mph 8 mph 53% 0 in 149.00 W/m2
18:09 61.3 °F 44.1 °F 30 in East 4 mph 10 mph 53% 0 in 107.00 W/m2
18:14 61.2 °F 43.3 °F 30 in ESE 2 mph 10 mph 52% 0 in 95.00 W/m2
18:19 61.2 °F 43.9 °F 30 in East 4.9 mph 9 mph 53% 0 in 100.00 W/m2
18:24 61.2 °F 43.3 °F 30 in NE 0.9 mph 9 mph 52% 0 in 109.00 W/m2
18:29 61.2 °F 43.9 °F 30 in ESE 6.9 mph 12 mph 53% 0 in 114.00 W/m2
18:34 61.2 °F 43.3 °F 30 in ESE 6.9 mph 8 mph 52% 0 in 120.00 W/m2
18:39 61.2 °F 43.9 °F 30 in Calm   7 mph 53% 0 in 118.00 W/m2
18:44 61.3 °F 43.5 °F 30 in East 2 mph 11 mph 52% 0 in 118.00 W/m2
18:49 61 °F 43.2 °F 30 in NE 4.9 mph 9 mph 52% 0 in 109.00 W/m2
18:54 60.8 °F 43.5 °F 30 in SE 4.9 mph 9 mph 53% 0 in 90.00 W/m2
18:59 60.6 °F 43.3 °F 30 in ESE 6.9 mph 9 mph 53% 0 in 79.00 W/m2
19:04 60.6 °F 43.3 °F 30 in Calm   3 mph 53% 0 in 83.00 W/m2
19:09 60.8 °F 44.1 °F 30 in ENE 2.9 mph 6 mph 54% 0 in 83.00 W/m2
19:14 60.8 °F 43 °F 30 in Calm   4 mph 52% 0 in 77.00 W/m2
19:19 61.2 °F 43.9 °F 30 in Calm   2 mph 53% 0 in 69.00 W/m2
19:24 61 °F 43.2 °F 30 in East 2 mph 10 mph 52% 0 in 67.00 W/m2
19:29 60.6 °F 42.4 °F 30 in NE 0.9 mph 7 mph 51% 0 in 69.00 W/m2
19:33 60.4 °F 42.3 °F 30 in ENE 4 mph 7 mph 51% 0 in 70.00 W/m2
19:39 60.3 °F 42.6 °F 30 in Calm   7 mph 52% 0 in 105.00 W/m2
19:44 60.3 °F 42.6 °F 30 in ENE 2.9 mph 3 mph 52% 0 in 81.00 W/m2
19:48 60.4 °F 42.8 °F 30 in ENE 0.9 mph 4 mph 52% 0 in 74.00 W/m2
19:54 60.3 °F 42.6 °F 30 in NE 0.9 mph 5 mph 52% 0 in 54.00 W/m2
19:59 60.1 °F 42.4 °F 30 in NE 4 mph 6 mph 52% 0 in 46.00 W/m2
20:04 59.9 °F 42.3 °F 30 in NE 2.9 mph 3 mph 52% 0 in 35.00 W/m2
20:09 59.5 °F 41.9 °F 30 in East 2.9 mph 6 mph 52% 0 in 26.00 W/m2
20:14 59.4 °F 41.2 °F 30 in NE 0.9 mph 8 mph 51% 0 in 23.00 W/m2
20:18 59 °F 41.4 °F 30 in ENE 2.9 mph 10 mph 52% 0 in 19.00 W/m2
20:20 59 °F 41.4 °F 30 in ENE 2.9 mph 3 mph 52% 0 in 16.00 W/m2
20:29 58.3 °F 40.3 °F 30 in SE 4.9 mph 6 mph 51% 0 in 12.00 W/m2
20:33 58.1 °F 40.6 °F 30 in East 2 mph 12 mph 52% 0 in 11.00 W/m2
20:34 58.1 °F 40.6 °F 30 in ENE 2.9 mph 12 mph 52% 0 in 11.00 W/m2
20:44 57.6 °F 41 °F 30 in NNE 6 mph 13 mph 54% 0 in 7.00 W/m2
20:49 57.2 °F 41.2 °F 30 in NE 10.1 mph 10 mph 55% 0 in 5.00 W/m2
20:54 57 °F 41 °F 30 in East 6.9 mph 8 mph 55% 0 in 0.00 W/m2
20:59 56.8 °F 41.4 °F 30 in Calm   7 mph 56% 0 in 0.00 W/m2
21:02 56.8 °F 41.4 °F 30 in East 2 mph 4 mph 56% 0 in 0.00 W/m2
21:03 56.8 °F 41.4 °F 30 in Calm   4 mph 56% 0 in 0.00 W/m2
23:14 52.7 °F 41.2 °F 30 in Calm     65% 0 in 0.00 W/m2
23:19 52.3 °F 41 °F 30 in Calm     65% 0 in 0.00 W/m2
23:24 52.2 °F 41.2 °F 29.9 in Calm   1 mph 66% 0 in 0.00 W/m2
23:29 52 °F 41 °F 29.9 in Calm   3 mph 66% 0 in 0.00 W/m2
23:34 51.8 °F 40.8 °F 29.9 in Calm   2 mph 66% 0 in 0.00 W/m2
23:39 51.6 °F 41 °F 29.9 in East 3 mph 3 mph 67% 0 in 0.00 W/m2
23:44 51.4 °F 40.8 °F 29.9 in Calm   2 mph 67% 0 in 0.00 W/m2
23:49 51.4 °F 40.8 °F 29.9 in East 0.9 mph 3 mph 67% 0 in 0.00 W/m2
23:54 51.3 °F 40.6 °F 29.9 in East 2.9 mph 3 mph 67% 0 in 0.00 W/m2
23:59 51.1 °F 40.8 °F 29.9 in Calm   3 mph 68% 0 in 0.00 W/m2